sensor_id;sensor_type;location;lat;lon;timestamp;pressure;altitude;pressure_sealevel;temperature;humidity
33953;BME280;20231;42.710;23.280;2023-02-11T00:01:28;96613.88;;;2.12;45.86
33953;BME280;20231;42.710;23.280;2023-02-11T00:03:54;96614.78;;;1.84;45.92
33953;BME280;20231;42.710;23.280;2023-02-11T00:06:20;96589.50;;;1.78;46.25
33953;BME280;20231;42.710;23.280;2023-02-11T00:08:46;96608.97;;;2.03;45.72
33953;BME280;20231;42.710;23.280;2023-02-11T00:11:13;96612.56;;;2.02;45.81
33953;BME280;20231;42.710;23.280;2023-02-11T00:13:40;96602.06;;;2.10;45.51
33953;BME280;20231;42.710;23.280;2023-02-11T00:16:07;96611.09;;;2.14;45.33
33953;BME280;20231;42.710;23.280;2023-02-11T00:18:33;96622.88;;;2.31;44.92
33953;BME280;20231;42.710;23.280;2023-02-11T00:21:14;96609.84;;;2.10;45.06
33953;BME280;20231;42.710;23.280;2023-02-11T00:23:40;96608.97;;;2.03;45.43
33953;BME280;20231;42.710;23.280;2023-02-11T00:26:22;96612.09;;;1.92;45.84
33953;BME280;20231;42.710;23.280;2023-02-11T00:28:49;96611.78;;;2.02;45.44
33953;BME280;20231;42.710;23.280;2023-02-11T00:31:16;96613.53;;;2.15;45.17
33953;BME280;20231;42.710;23.280;2023-02-11T00:33:42;96604.75;;;2.02;45.15
33953;BME280;20231;42.710;23.280;2023-02-11T00:36:13;96597.66;;;1.90;45.35
33953;BME280;20231;42.710;23.280;2023-02-11T00:38:39;96598.72;;;1.95;45.25
33953;BME280;20231;42.710;23.280;2023-02-11T00:41:06;96609.44;;;2.07;45.13
33953;BME280;20231;42.710;23.280;2023-02-11T00:43:31;96594.97;;;1.34;46.65
33953;BME280;20231;42.710;23.280;2023-02-11T00:45:58;96603.78;;;1.18;46.57
33953;BME280;20231;42.710;23.280;2023-02-11T00:48:23;96589.56;;;1.14;46.87
33953;BME280;20231;42.710;23.280;2023-02-11T00:50:49;96591.22;;;1.22;47.02
33953;BME280;20231;42.710;23.280;2023-02-11T00:53:14;96583.00;;;1.33;46.78
33953;BME280;20231;42.710;23.280;2023-02-11T00:55:40;96585.03;;;1.51;46.13
33953;BME280;20231;42.710;23.280;2023-02-11T00:58:05;96597.69;;;1.40;46.19
33953;BME280;20231;42.710;23.280;2023-02-11T01:00:30;96580.75;;;1.30;46.38
33953;BME280;20231;42.710;23.280;2023-02-11T01:02:56;96585.69;;;1.25;46.65
33953;BME280;20231;42.710;23.280;2023-02-11T01:05:23;96592.63;;;1.53;46.49
33953;BME280;20231;42.710;23.280;2023-02-11T01:07:48;96575.75;;;1.28;46.25
33953;BME280;20231;42.710;23.280;2023-02-11T01:10:14;96595.00;;;1.05;46.99
33953;BME280;20231;42.710;23.280;2023-02-11T01:12:40;96567.56;;;1.31;46.35
33953;BME280;20231;42.710;23.280;2023-02-11T01:15:07;96571.84;;;1.53;46.00
33953;BME280;20231;42.710;23.280;2023-02-11T01:17:34;96595.69;;;1.77;45.52
33953;BME280;20231;42.710;23.280;2023-02-11T01:20:05;96596.34;;;1.79;45.01
33953;BME280;20231;42.710;23.280;2023-02-11T01:22:31;96586.59;;;1.32;45.96
33953;BME280;20231;42.710;23.280;2023-02-11T01:24:58;96584.59;;;1.19;46.58
33953;BME280;20231;42.710;23.280;2023-02-11T01:27:24;96581.31;;;1.11;47.05
33953;BME280;20231;42.710;23.280;2023-02-11T01:29:49;96585.16;;;0.86;47.15
33953;BME280;20231;42.710;23.280;2023-02-11T01:32:14;96581.72;;;0.57;47.86
33953;BME280;20231;42.710;23.280;2023-02-11T01:34:40;96573.56;;;0.31;48.69
33953;BME280;20231;42.710;23.280;2023-02-11T01:37:05;96583.00;;;0.75;48.08
33953;BME280;20231;42.710;23.280;2023-02-11T01:39:34;96564.13;;;0.67;47.90
33953;BME280;20231;42.710;23.280;2023-02-11T01:42:00;96572.28;;;0.92;47.55
33953;BME280;20231;42.710;23.280;2023-02-11T01:44:31;96572.72;;;1.10;47.14
33953;BME280;20231;42.710;23.280;2023-02-11T01:46:58;96565.97;;;1.01;47.23
33953;BME280;20231;42.710;23.280;2023-02-11T01:49:37;96564.72;;;1.12;46.90
33953;BME280;20231;42.710;23.280;2023-02-11T01:52:08;96571.88;;;1.24;46.48
33953;BME280;20231;42.710;23.280;2023-02-11T01:54:43;96565.09;;;1.23;46.17
33953;BME280;20231;42.710;23.280;2023-02-11T01:57:31;96565.81;;;1.17;46.54
33953;BME280;20231;42.710;23.280;2023-02-11T02:05:04;96567.75;;;1.30;46.14
33953;BME280;20231;42.710;23.280;2023-02-11T02:08:04;96568.94;;;1.13;46.24
33953;BME280;20231;42.710;23.280;2023-02-11T02:10:33;96574.41;;;1.18;46.39
33953;BME280;20231;42.710;23.280;2023-02-11T02:12:59;96576.47;;;1.08;46.51
33953;BME280;20231;42.710;23.280;2023-02-11T02:15:31;96562.22;;;1.04;46.48
33953;BME280;20231;42.710;23.280;2023-02-11T02:20:51;96570.47;;;1.07;46.64
33953;BME280;20231;42.710;23.280;2023-02-11T02:31:44;96564.28;;;0.94;46.43
33953;BME280;20231;42.710;23.280;2023-02-11T02:34:25;96569.03;;;1.05;46.24
33953;BME280;20231;42.710;23.280;2023-02-11T02:37:00;96567.59;;;1.17;45.93
33953;BME280;20231;42.710;23.280;2023-02-11T02:39:32;96573.16;;;1.14;45.88
33953;BME280;20231;42.710;23.280;2023-02-11T02:42:00;96563.66;;;1.06;46.10
33953;BME280;20231;42.710;23.280;2023-02-11T02:44:27;96562.88;;;0.91;46.36
33953;BME280;20231;42.710;23.280;2023-02-11T02:46:53;96562.22;;;0.75;46.84
33953;BME280;20231;42.710;23.280;2023-02-11T02:49:18;96552.09;;;0.94;46.24
33953;BME280;20231;42.710;23.280;2023-02-11T02:55:02;96566.97;;;1.15;46.02
33953;BME280;20231;42.710;23.280;2023-02-11T02:57:37;96542.97;;;0.84;46.40
33953;BME280;20231;42.710;23.280;2023-02-11T03:04:10;96564.94;;;0.96;46.63
33953;BME280;20231;42.710;23.280;2023-02-11T03:06:45;96575.50;;;0.80;47.02
33953;BME280;20231;42.710;23.280;2023-02-11T03:09:22;96565.34;;;0.85;46.78
33953;BME280;20231;42.710;23.280;2023-02-11T03:11:49;96555.78;;;0.85;46.79
33953;BME280;20231;42.710;23.280;2023-02-11T03:14:16;96570.22;;;0.88;46.45
33953;BME280;20231;42.710;23.280;2023-02-11T03:16:44;96572.28;;;0.92;46.45
33953;BME280;20231;42.710;23.280;2023-02-11T03:19:14;96561.16;;;0.84;46.48
33953;BME280;20231;42.710;23.280;2023-02-11T03:21:41;96561.78;;;0.71;46.71
33953;BME280;20231;42.710;23.280;2023-02-11T03:24:15;96570.03;;;0.89;46.48
33953;BME280;20231;42.710;23.280;2023-02-11T03:26:55;96562.94;;;0.83;46.37
33953;BME280;20231;42.710;23.280;2023-02-11T03:29:38;96577.44;;;0.78;46.61
33953;BME280;20231;42.710;23.280;2023-02-11T03:32:12;96574.69;;;0.79;46.60
33953;BME280;20231;42.710;23.280;2023-02-11T03:34:50;96563.13;;;0.68;46.66
33953;BME280;20231;42.710;23.280;2023-02-11T03:37:31;96572.88;;;0.66;46.97
33953;BME280;20231;42.710;23.280;2023-02-11T03:40:02;96551.31;;;0.65;46.72
33953;BME280;20231;42.710;23.280;2023-02-11T03:42:33;96548.59;;;0.59;46.80
33953;BME280;20231;42.710;23.280;2023-02-11T03:45:10;96541.84;;;0.35;46.88
33953;BME280;20231;42.710;23.280;2023-02-11T03:47:39;96557.44;;;0.50;46.85
33953;BME280;20231;42.710;23.280;2023-02-11T03:50:08;96561.84;;;0.78;46.45
33953;BME280;20231;42.710;23.280;2023-02-11T03:52:36;96563.06;;;0.90;46.26
33953;BME280;20231;42.710;23.280;2023-02-11T03:55:05;96566.78;;;0.73;46.45
33953;BME280;20231;42.710;23.280;2023-02-11T03:57:33;96561.84;;;0.64;46.60
33953;BME280;20231;42.710;23.280;2023-02-11T03:59:59;96568.41;;;0.74;46.36
33953;BME280;20231;42.710;23.280;2023-02-11T04:02:30;96560.16;;;0.42;47.39
33953;BME280;20231;42.710;23.280;2023-02-11T04:04:57;96565.88;;;0.52;47.17
33953;BME280;20231;42.710;23.280;2023-02-11T04:07:23;96556.41;;;0.59;46.76
33953;BME280;20231;42.710;23.280;2023-02-11T04:09:49;96550.03;;;0.47;46.87
33953;BME280;20231;42.710;23.280;2023-02-11T04:12:14;96562.84;;;0.63;46.66
33953;BME280;20231;42.710;23.280;2023-02-11T04:14:40;96558.72;;;0.68;46.41
33953;BME280;20231;42.710;23.280;2023-02-11T04:17:05;96555.09;;;0.26;47.54
33953;BME280;20231;42.710;23.280;2023-02-11T04:19:31;96558.03;;;0.60;47.16
33953;BME280;20231;42.710;23.280;2023-02-11T04:21:56;96554.94;;;0.27;47.75
33953;BME280;20231;42.710;23.280;2023-02-11T04:24:22;96563.25;;;0.37;47.39
33953;BME280;20231;42.710;23.280;2023-02-11T04:26:47;96555.75;;;0.42;47.08
33953;BME280;20231;42.710;23.280;2023-02-11T04:29:13;96548.16;;;0.41;47.31
33953;BME280;20231;42.710;23.280;2023-02-11T04:31:38;96559.06;;;0.36;47.73
33953;BME280;20231;42.710;23.280;2023-02-11T04:34:04;96555.16;;;0.55;47.12
33953;BME280;20231;42.710;23.280;2023-02-11T04:36:29;96558.53;;;0.55;47.22
33953;BME280;20231;42.710;23.280;2023-02-11T04:38:54;96549.25;;;0.61;46.86
33953;BME280;20231;42.710;23.280;2023-02-11T04:41:20;96550.31;;;0.52;47.18
33953;BME280;20231;42.710;23.280;2023-02-11T04:43:45;96545.44;;;0.34;47.41
33953;BME280;20231;42.710;23.280;2023-02-11T04:46:11;96541.41;;;0.32;47.46
33953;BME280;20231;42.710;23.280;2023-02-11T04:48:36;96535.75;;;0.28;47.95
33953;BME280;20231;42.710;23.280;2023-02-11T04:51:01;96554.06;;;0.49;47.68
33953;BME280;20231;42.710;23.280;2023-02-11T04:53:27;96539.91;;;0.37;47.39
33953;BME280;20231;42.710;23.280;2023-02-11T04:55:52;96544.13;;;0.38;47.10
33953;BME280;20231;42.710;23.280;2023-02-11T04:58:18;96550.28;;;0.37;47.38
33953;BME280;20231;42.710;23.280;2023-02-11T05:00:44;96547.75;;;0.29;47.79
33953;BME280;20231;42.710;23.280;2023-02-11T05:03:10;96540.75;;;0.52;47.25
33953;BME280;20231;42.710;23.280;2023-02-11T05:05:40;96544.31;;;0.37;47.47
33953;BME280;20231;42.710;23.280;2023-02-11T05:08:07;96538.84;;;0.09;47.68
33953;BME280;20231;42.710;23.280;2023-02-11T05:10:32;96540.19;;;0.05;47.78
33953;BME280;20231;42.710;23.280;2023-02-11T05:12:58;96537.28;;;0.23;47.28
33953;BME280;20231;42.710;23.280;2023-02-11T05:15:23;96533.25;;;0.20;47.63
33953;BME280;20231;42.710;23.280;2023-02-11T05:17:49;96521.44;;;0.18;47.64
33953;BME280;20231;42.710;23.280;2023-02-11T05:20:14;96538.19;;;0.30;47.55
33953;BME280;20231;42.710;23.280;2023-02-11T05:22:40;96545.84;;;-0.13;48.39
33953;BME280;20231;42.710;23.280;2023-02-11T05:25:05;96534.22;;;0.05;47.87
33953;BME280;20231;42.710;23.280;2023-02-11T05:27:31;96539.41;;;-0.17;47.81
33953;BME280;20231;42.710;23.280;2023-02-11T05:29:56;96528.81;;;-0.30;48.34
33953;BME280;20231;42.710;23.280;2023-02-11T05:32:22;96544.19;;;-0.06;47.75
33953;BME280;20231;42.710;23.280;2023-02-11T05:34:47;96511.69;;;-0.17;47.64
33953;BME280;20231;42.710;23.280;2023-02-11T05:37:13;96535.97;;;0.04;47.36
33953;BME280;20231;42.710;23.280;2023-02-11T05:39:38;96524.84;;;-0.18;47.80
33953;BME280;20231;42.710;23.280;2023-02-11T05:42:04;96537.91;;;-0.12;48.01
33953;BME280;20231;42.710;23.280;2023-02-11T05:44:29;96535.94;;;-0.10;48.25
33953;BME280;20231;42.710;23.280;2023-02-11T05:46:55;96533.63;;;-0.05;48.09
33953;BME280;20231;42.710;23.280;2023-02-11T05:49:20;96547.00;;;0.06;47.91
33953;BME280;20231;42.710;23.280;2023-02-11T05:51:45;96542.28;;;-0.35;48.87
33953;BME280;20231;42.710;23.280;2023-02-11T05:54:11;96546.97;;;-0.30;49.21
33953;BME280;20231;42.710;23.280;2023-02-11T05:56:36;96551.31;;;-0.31;49.18
33953;BME280;20231;42.710;23.280;2023-02-11T05:59:02;96549.84;;;-0.25;49.06
33953;BME280;20231;42.710;23.280;2023-02-11T06:01:28;96546.09;;;-0.23;48.99
33953;BME280;20231;42.710;23.280;2023-02-11T06:03:53;96546.44;;;-0.26;50.21
33953;BME280;20231;42.710;23.280;2023-02-11T06:06:19;96548.63;;;-0.37;49.62
33953;BME280;20231;42.710;23.280;2023-02-11T06:08:44;96548.00;;;-0.17;48.89
33953;BME280;20231;42.710;23.280;2023-02-11T06:11:09;96554.84;;;-0.24;50.77
33953;BME280;20231;42.710;23.280;2023-02-11T06:13:35;96550.56;;;-0.39;49.93
33953;BME280;20231;42.710;23.280;2023-02-11T06:16:01;96561.53;;;-0.52;50.07
33953;BME280;20231;42.710;23.280;2023-02-11T06:18:27;96556.53;;;-0.53;49.75
33953;BME280;20231;42.710;23.280;2023-02-11T06:20:53;96545.06;;;-0.67;49.72
33953;BME280;20231;42.710;23.280;2023-02-11T06:23:18;96558.03;;;-0.67;49.99
33953;BME280;20231;42.710;23.280;2023-02-11T06:25:44;96551.44;;;-0.77;50.23
33953;BME280;20231;42.710;23.280;2023-02-11T06:28:09;96544.59;;;-0.70;49.96
33953;BME280;20231;42.710;23.280;2023-02-11T06:30:36;96542.88;;;-0.47;49.57
33953;BME280;20231;42.710;23.280;2023-02-11T06:33:01;96539.16;;;-0.53;49.47
33953;BME280;20231;42.710;23.280;2023-02-11T06:35:28;96546.63;;;-0.50;49.41
33953;BME280;20231;42.710;23.280;2023-02-11T06:37:53;96573.19;;;-0.56;50.05
33953;BME280;20231;42.710;23.280;2023-02-11T06:40:19;96571.25;;;-0.54;49.86
33953;BME280;20231;42.710;23.280;2023-02-11T06:42:45;96557.03;;;-0.58;49.90
33953;BME280;20231;42.710;23.280;2023-02-11T06:45:11;96560.22;;;-0.78;50.30
33953;BME280;20231;42.710;23.280;2023-02-11T06:47:38;96571.81;;;-0.66;50.50
33953;BME280;20231;42.710;23.280;2023-02-11T06:50:06;96563.38;;;-0.38;49.66
33953;BME280;20231;42.710;23.280;2023-02-11T06:52:33;96569.88;;;-0.42;49.84
33953;BME280;20231;42.710;23.280;2023-02-11T06:54:58;96574.28;;;-0.20;49.49
33953;BME280;20231;42.710;23.280;2023-02-11T06:57:24;96567.94;;;-0.40;49.70
33953;BME280;20231;42.710;23.280;2023-02-11T06:59:50;96573.06;;;-0.32;50.04
33953;BME280;20231;42.710;23.280;2023-02-11T07:02:15;96570.75;;;-0.27;50.00
33953;BME280;20231;42.710;23.280;2023-02-11T07:04:41;96562.75;;;-0.40;50.21
33953;BME280;20231;42.710;23.280;2023-02-11T07:07:06;96570.25;;;-0.22;49.98
33953;BME280;20231;42.710;23.280;2023-02-11T07:09:32;96568.50;;;-0.30;49.93
33953;BME280;20231;42.710;23.280;2023-02-11T07:11:57;96556.97;;;-0.27;50.06
33953;BME280;20231;42.710;23.280;2023-02-11T07:14:22;96560.84;;;-0.23;50.35
33953;BME280;20231;42.710;23.280;2023-02-11T07:16:48;96560.06;;;0.13;49.51
33953;BME280;20231;42.710;23.280;2023-02-11T07:19:13;96558.72;;;0.02;49.64
33953;BME280;20231;42.710;23.280;2023-02-11T07:21:39;96548.16;;;0.04;49.79
33953;BME280;20231;42.710;23.280;2023-02-11T07:24:08;96565.00;;;0.22;49.34
33953;BME280;20231;42.710;23.280;2023-02-11T07:26:34;96562.56;;;0.43;49.18
33953;BME280;20231;42.710;23.280;2023-02-11T07:29:00;96547.16;;;0.27;49.41
33953;BME280;20231;42.710;23.280;2023-02-11T07:31:27;96547.06;;;0.50;49.11
33953;BME280;20231;42.710;23.280;2023-02-11T07:33:55;96552.09;;;0.51;49.12
33953;BME280;20231;42.710;23.280;2023-02-11T07:36:22;96548.69;;;0.51;49.57
33953;BME280;20231;42.710;23.280;2023-02-11T07:38:48;96542.09;;;0.77;48.85
33953;BME280;20231;42.710;23.280;2023-02-11T07:41:16;96549.31;;;0.67;49.53
33953;BME280;20231;42.710;23.280;2023-02-11T07:43:42;96529.88;;;0.34;49.96
33953;BME280;20231;42.710;23.280;2023-02-11T07:46:10;96527.56;;;0.54;50.15
33953;BME280;20231;42.710;23.280;2023-02-11T07:48:36;96525.50;;;0.49;50.34
33953;BME280;20231;42.710;23.280;2023-02-11T07:51:07;96531.31;;;0.37;50.98
33953;BME280;20231;42.710;23.280;2023-02-11T07:53:33;96536.41;;;0.45;50.96
33953;BME280;20231;42.710;23.280;2023-02-11T07:55:58;96535.34;;;0.39;51.40
33953;BME280;20231;42.710;23.280;2023-02-11T07:58:24;96522.91;;;0.64;51.06
33953;BME280;20231;42.710;23.280;2023-02-11T08:00:49;96523.25;;;0.89;50.43
33953;BME280;20231;42.710;23.280;2023-02-11T08:03:14;96527.00;;;1.01;49.97
33953;BME280;20231;42.710;23.280;2023-02-11T08:05:40;96524.25;;;0.88;50.31
33953;BME280;20231;42.710;23.280;2023-02-11T08:08:05;96529.00;;;0.56;50.94
33953;BME280;20231;42.710;23.280;2023-02-11T08:10:30;96523.94;;;0.26;52.11
33953;BME280;20231;42.710;23.280;2023-02-11T08:12:56;96523.09;;;0.76;51.07
33953;BME280;20231;42.710;23.280;2023-02-11T08:15:21;96512.94;;;1.10;50.11
33953;BME280;20231;42.710;23.280;2023-02-11T08:17:46;96521.59;;;1.32;49.70
33953;BME280;20231;42.710;23.280;2023-02-11T08:20:12;96520.94;;;0.80;50.91
33953;BME280;20231;42.710;23.280;2023-02-11T08:22:37;96524.66;;;0.20;52.28
33953;BME280;20231;42.710;23.280;2023-02-11T08:25:03;96524.09;;;-0.27;54.22
33953;BME280;20231;42.710;23.280;2023-02-11T08:27:29;96534.16;;;0.27;53.38
33953;BME280;20231;42.710;23.280;2023-02-11T08:29:55;96522.50;;;-0.13;54.34
33953;BME280;20231;42.710;23.280;2023-02-11T08:32:21;96529.41;;;-0.06;54.63
33953;BME280;20231;42.710;23.280;2023-02-11T08:34:50;96517.72;;;0.35;53.89
33953;BME280;20231;42.710;23.280;2023-02-11T08:37:16;96513.78;;;0.82;52.95
33953;BME280;20231;42.710;23.280;2023-02-11T08:39:41;96503.00;;;0.85;52.31
33953;BME280;20231;42.710;23.280;2023-02-11T08:42:07;96516.09;;;1.06;51.98
33953;BME280;20231;42.710;23.280;2023-02-11T08:44:32;96512.06;;;0.60;53.20
33953;BME280;20231;42.710;23.280;2023-02-11T08:46:58;96522.56;;;0.81;53.09
33953;BME280;20231;42.710;23.280;2023-02-11T08:49:23;96514.00;;;1.16;52.39
33953;BME280;20231;42.710;23.280;2023-02-11T08:51:49;96516.44;;;1.17;52.56
33953;BME280;20231;42.710;23.280;2023-02-11T08:54:15;96510.03;;;1.34;51.71
33953;BME280;20231;42.710;23.280;2023-02-11T08:56:40;96511.28;;;0.60;53.16
33953;BME280;20231;42.710;23.280;2023-02-11T08:59:07;96521.19;;;1.14;52.31
33953;BME280;20231;42.710;23.280;2023-02-11T09:01:34;96519.28;;;1.43;51.44
33953;BME280;20231;42.710;23.280;2023-02-11T09:03:59;96506.66;;;1.05;51.11
33953;BME280;20231;42.710;23.280;2023-02-11T09:06:26;96507.31;;;1.28;50.91
33953;BME280;20231;42.710;23.280;2023-02-11T09:08:54;96492.53;;;0.93;50.65
33953;BME280;20231;42.710;23.280;2023-02-11T09:11:25;96502.63;;;1.17;51.08
33953;BME280;20231;42.710;23.280;2023-02-11T09:13:51;96512.63;;;1.34;49.70
33953;BME280;20231;42.710;23.280;2023-02-11T09:16:19;96501.50;;;0.90;50.46
33953;BME280;20231;42.710;23.280;2023-02-11T09:18:45;96507.91;;;1.44;49.89
33953;BME280;20231;42.710;23.280;2023-02-11T09:21:12;96511.72;;;0.63;51.41
33953;BME280;20231;42.710;23.280;2023-02-11T09:23:38;96509.81;;;1.15;50.87
33953;BME280;20231;42.710;23.280;2023-02-11T09:26:13;96504.22;;;1.53;49.72
33953;BME280;20231;42.710;23.280;2023-02-11T09:28:39;96493.75;;;1.67;48.67
33953;BME280;20231;42.710;23.280;2023-02-11T09:31:06;96506.19;;;1.93;47.68
33953;BME280;20231;42.710;23.280;2023-02-11T09:33:32;96494.63;;;2.22;46.92
33953;BME280;20231;42.710;23.280;2023-02-11T09:36:05;96500.31;;;1.42;48.85
33953;BME280;20231;42.710;23.280;2023-02-11T09:38:31;96503.81;;;1.70;47.84
33953;BME280;20231;42.710;23.280;2023-02-11T09:40:57;96484.72;;;2.11;46.82
33953;BME280;20231;42.710;23.280;2023-02-11T09:43:30;96479.03;;;2.22;46.69
33953;BME280;20231;42.710;23.280;2023-02-11T09:45:57;96476.00;;;2.53;45.51
33953;BME280;20231;42.710;23.280;2023-02-11T09:48:24;96475.78;;;2.48;45.39
33953;BME280;20231;42.710;23.280;2023-02-11T09:50:53;96468.19;;;2.53;45.56
33953;BME280;20231;42.710;23.280;2023-02-11T09:53:27;96473.47;;;2.66;44.64
33953;BME280;20231;42.710;23.280;2023-02-11T09:55:59;96471.53;;;1.65;45.24
33953;BME280;20231;42.710;23.280;2023-02-11T09:58:30;96448.16;;;1.71;46.26
33953;BME280;20231;42.710;23.280;2023-02-11T10:03:51;96436.88;;;1.85;46.20
33953;BME280;20231;42.710;23.280;2023-02-11T10:06:47;96443.06;;;1.84;45.57
33953;BME280;20231;42.710;23.280;2023-02-11T10:20:34;96427.97;;;2.62;43.86
33953;BME280;20231;42.710;23.280;2023-02-11T10:23:09;96396.41;;;2.84;42.99
33953;BME280;20231;42.710;23.280;2023-02-11T10:25:40;96397.31;;;3.23;42.63
33953;BME280;20231;42.710;23.280;2023-02-11T10:28:21;96396.72;;;3.53;41.51
33953;BME280;20231;42.710;23.280;2023-02-11T10:30:57;96373.03;;;3.36;41.58
33953;BME280;20231;42.710;23.280;2023-02-11T10:33:34;96377.28;;;3.43;41.25
33953;BME280;20231;42.710;23.280;2023-02-11T10:36:02;96362.59;;;3.16;41.89
33953;BME280;20231;42.710;23.280;2023-02-11T10:38:28;96342.97;;;3.46;41.54
33953;BME280;20231;42.710;23.280;2023-02-11T10:40:53;96358.41;;;3.35;40.53
33953;BME280;20231;42.710;23.280;2023-02-11T10:43:23;96354.00;;;3.67;41.64
33953;BME280;20231;42.710;23.280;2023-02-11T10:45:51;96345.34;;;4.06;40.56
33953;BME280;20231;42.710;23.280;2023-02-11T10:48:40;96347.59;;;3.31;39.74
33953;BME280;20231;42.710;23.280;2023-02-11T10:53:35;96316.88;;;3.33;40.95
33953;BME280;20231;42.710;23.280;2023-02-11T10:56:01;96325.50;;;3.53;41.51
33953;BME280;20231;42.710;23.280;2023-02-11T10:58:36;96313.63;;;3.83;41.37
33953;BME280;20231;42.710;23.280;2023-02-11T11:01:03;96313.41;;;4.04;40.50
33953;BME280;20231;42.710;23.280;2023-02-11T11:03:34;96309.25;;;3.70;41.02
33953;BME280;20231;42.710;23.280;2023-02-11T11:06:05;96303.13;;;4.09;40.45
33953;BME280;20231;42.710;23.280;2023-02-11T11:11:19;96304.03;;;3.70;40.01
33953;BME280;20231;42.710;23.280;2023-02-11T11:18:52;96311.25;;;3.62;41.32
33953;BME280;20231;42.710;23.280;2023-02-11T11:21:51;96291.09;;;3.95;39.34
33953;BME280;20231;42.710;23.280;2023-02-11T11:26:58;96296.03;;;4.28;39.16
33953;BME280;20231;42.710;23.280;2023-02-11T11:29:35;96298.34;;;4.56;39.35
33953;BME280;20231;42.710;23.280;2023-02-11T11:32:15;96289.44;;;4.20;40.65
33953;BME280;20231;42.710;23.280;2023-02-11T11:34:49;96279.94;;;4.31;40.32
33953;BME280;20231;42.710;23.280;2023-02-11T11:37:22;96273.53;;;4.27;40.90
33953;BME280;20231;42.710;23.280;2023-02-11T11:40:06;96285.13;;;4.44;41.07
33953;BME280;20231;42.710;23.280;2023-02-11T11:42:35;96281.91;;;5.17;39.51
33953;BME280;20231;42.710;23.280;2023-02-11T11:45:25;96268.50;;;5.31;38.37
33953;BME280;20231;42.710;23.280;2023-02-11T11:47:58;96279.59;;;5.27;38.44
33953;BME280;20231;42.710;23.280;2023-02-11T11:58:00;96268.88;;;6.01;36.11
33953;BME280;20231;42.710;23.280;2023-02-11T12:14:33;96234.50;;;6.74;35.58
33953;BME280;20231;42.710;23.280;2023-02-11T12:22:11;96218.69;;;6.92;33.12
33953;BME280;20231;42.710;23.280;2023-02-11T12:32:56;96203.56;;;6.65;33.62
33953;BME280;20231;42.710;23.280;2023-02-11T12:40:44;96199.06;;;6.25;35.90
33953;BME280;20231;42.710;23.280;2023-02-11T12:43:42;96197.31;;;6.77;41.94
33953;BME280;20231;42.710;23.280;2023-02-11T12:46:38;96192.53;;;6.86;37.04
33953;BME280;20231;42.710;23.280;2023-02-11T12:51:54;96186.28;;;6.87;37.69
33953;BME280;20231;42.710;23.280;2023-02-11T12:54:47;96171.25;;;6.24;38.49
33953;BME280;20231;42.710;23.280;2023-02-11T12:57:21;96180.38;;;6.50;39.71
33953;BME280;20231;42.710;23.280;2023-02-11T13:00:12;96165.75;;;6.84;40.00
33953;BME280;20231;42.710;23.280;2023-02-11T13:02:44;96171.81;;;6.96;39.18
33953;BME280;20231;42.710;23.280;2023-02-11T13:05:32;96167.94;;;6.98;36.30
33953;BME280;20231;42.710;23.280;2023-02-11T13:11:01;96169.34;;;6.60;34.41
33953;BME280;20231;42.710;23.280;2023-02-11T13:13:31;96159.25;;;6.45;36.20
33953;BME280;20231;42.710;23.280;2023-02-11T13:16:06;96178.94;;;6.66;35.78
33953;BME280;20231;42.710;23.280;2023-02-11T13:18:48;96160.03;;;6.75;35.94
33953;BME280;20231;42.710;23.280;2023-02-11T13:26:44;96159.22;;;6.75;34.55
33953;BME280;20231;42.710;23.280;2023-02-11T13:29:25;96156.69;;;6.57;48.89
33953;BME280;20231;42.710;23.280;2023-02-11T13:32:19;96154.41;;;6.31;34.12
33953;BME280;20231;42.710;23.280;2023-02-11T13:37:37;96153.13;;;7.04;32.44
33953;BME280;20231;42.710;23.280;2023-02-11T13:42:33;96142.97;;;7.18;32.80
33953;BME280;20231;42.710;23.280;2023-02-11T13:47:59;96147.06;;;6.92;31.54
33953;BME280;20231;42.710;23.280;2023-02-11T13:50:26;96136.69;;;6.97;31.22
33953;BME280;20231;42.710;23.280;2023-02-11T13:52:57;96140.47;;;7.35;31.96
33953;BME280;20231;42.710;23.280;2023-02-11T13:55:24;96131.53;;;6.90;31.72
33953;BME280;20231;42.710;23.280;2023-02-11T14:06:13;96119.81;;;8.72;33.15
33953;BME280;20231;42.710;23.280;2023-02-11T14:11:48;96112.88;;;8.66;30.30
33953;BME280;20231;42.710;23.280;2023-02-11T14:14:20;96110.75;;;9.13;33.77
33953;BME280;20231;42.710;23.280;2023-02-11T14:19:48;96125.44;;;9.25;37.24
33953;BME280;20231;42.710;23.280;2023-02-11T14:22:27;96121.41;;;9.77;31.14
33953;BME280;20231;42.710;23.280;2023-02-11T14:25:01;96117.34;;;9.69;29.39
33953;BME280;20231;42.710;23.280;2023-02-11T14:27:41;96120.97;;;9.63;37.33
33953;BME280;20231;42.710;23.280;2023-02-11T14:43:42;96118.63;;;9.13;36.31
33953;BME280;20231;42.710;23.280;2023-02-11T14:46:09;96113.81;;;9.05;32.72
33953;BME280;20231;42.710;23.280;2023-02-11T14:48:36;96101.34;;;8.84;31.81
33953;BME280;20231;42.710;23.280;2023-02-11T14:51:12;96110.66;;;8.75;33.49
33953;BME280;20231;42.710;23.280;2023-02-11T14:53:40;96107.06;;;8.48;31.52
33953;BME280;20231;42.710;23.280;2023-02-11T14:56:25;96111.28;;;8.10;31.59
33953;BME280;20231;42.710;23.280;2023-02-11T14:58:52;96107.31;;;8.07;33.16
33953;BME280;20231;42.710;23.280;2023-02-11T15:01:28;96102.50;;;8.16;33.71
33953;BME280;20231;42.710;23.280;2023-02-11T15:03:58;96097.97;;;8.00;31.70
33953;BME280;20231;42.710;23.280;2023-02-11T15:06:36;96093.50;;;8.00;32.80
33953;BME280;20231;42.710;23.280;2023-02-11T15:09:12;96098.03;;;8.28;43.32
33953;BME280;20231;42.710;23.280;2023-02-11T15:11:42;96068.28;;;8.27;32.66
33953;BME280;20231;42.710;23.280;2023-02-11T15:14:28;96091.41;;;8.42;32.49
33953;BME280;20231;42.710;23.280;2023-02-11T15:16:58;96093.50;;;8.00;31.93
33953;BME280;20231;42.710;23.280;2023-02-11T15:21:53;96085.25;;;8.20;33.10
33953;BME280;20231;42.710;23.280;2023-02-11T15:27:09;96082.97;;;8.12;32.64
33953;BME280;20231;42.710;23.280;2023-02-11T15:29:48;96081.34;;;8.22;32.49
33953;BME280;20231;42.710;23.280;2023-02-11T15:34:42;96077.03;;;8.16;32.19